Airport View

Enter AWOS ICAO identifier for current METAR.

ex. KFNL

KBBG 250955Z AUTO 09005KT 5SM BR OVC003 05/05 A3004 RMK AO2

25 Oct 2020 10:12

Frequency: 124.625

Phone: 417-334-0218

Other Area AWOS: KFWB - KHRO - KFLP - KBPK

TAF AMD KBBG 250829Z 2508/2606 09003KT 2SM BR OVC003 FM251400 06004KT 5SM BR OVC008 FM251800 06004KT P6SM OVC015 FM260400 05005KT P6SM OVC015 PROB30 2604/2605 -RA OVC010